Time;durP1;ratioP1;P1;durP2;ratioP2;P2;SDS_P1;SDS_P2;PMS_P1;PMS_P2;Temp;Humidity;BMP_temperature;BMP_pressure;BME280_temperature;BME280_humidity;BME280_pressure;Samples;Min_cycle;Max_cycle;Signal;HPM_P1;HPM_P2
2023/04/21 00:03:50;;;;;;;10.20;4.05;;;;;;;14.73;42.95;99761.25;7712765;32;40079;-81
2023/04/21 00:08:07;;;;;;;12.70;3.80;;;;;;;14.49;43.62;99759.41;7711873;32;40034;-81
2023/04/21 00:12:23;;;;;;;13.07;4.03;;;;;;;14.48;43.45;99757.78;7698370;32;37560;-81
2023/04/21 00:16:39;;;;;;;9.85;4.32;;;;;;;14.47;44.10;99761.66;7698264;32;37152;-81
2023/04/21 00:20:56;;;;;;;7.80;4.12;;;;;;;14.38;44.35;99757.94;7711485;32;40054;-81
2023/04/21 00:25:13;;;;;;;9.82;4.12;;;;;;;14.21;44.64;99752.97;7711762;32;39922;-81
2023/04/21 00:29:30;;;;;;;10.63;4.20;;;;;;;14.10;44.90;99766.03;7711680;32;38688;-81
2023/04/21 00:33:47;;;;;;;8.98;3.72;;;;;;;14.05;45.02;99757.87;7711757;32;37122;-81
2023/04/21 00:38:03;;;;;;;7.22;3.78;;;;;;;14.05;45.17;99760.59;7698847;32;39891;-81
2023/04/21 00:42:19;;;;;;;9.13;4.62;;;;;;;13.94;45.36;99754.47;7711594;32;39978;-83
2023/04/21 00:46:37;;;;;;;9.00;4.25;;;;;;;13.83;45.80;99752.97;7711490;32;37870;-82
2023/04/21 00:50:53;;;;;;;11.40;4.32;;;;;;;13.78;45.99;99755.75;7711352;32;37143;-82
2023/04/21 00:55:10;;;;;;;11.12;3.67;;;;;;;13.76;45.94;99750.56;7697928;32;39351;-82
2023/04/21 00:59:26;;;;;;;9.20;3.80;;;;;;;13.72;45.93;99746.81;7697763;32;40705;-81
2023/04/21 01:03:43;;;;;;;8.07;3.87;;;;;;;13.56;46.17;99745.38;7711337;32;37929;-80
2023/04/21 01:08:00;;;;;;;11.30;4.03;;;;;;;13.65;45.90;99746.34;7712136;32;36771;-81
2023/04/21 01:12:16;;;;;;;10.15;4.40;;;;;;;13.80;49.18;99753.56;7697845;32;39207;-81
2023/04/21 01:16:33;;;;;;;10.10;4.10;;;;;;;13.58;46.88;99749.44;7711359;32;40877;-82
2023/04/21 01:20:49;;;;;;;11.70;3.97;;;;;;;13.51;46.75;99740.78;7711254;32;37494;-82
2023/04/21 01:25:06;;;;;;;8.32;4.30;;;;;;;13.44;46.99;99741.13;7711209;32;36858;-81
2023/04/21 01:29:22;;;;;;;11.02;4.37;;;;;;;13.27;47.40;99736.06;7697546;32;40126;-81
2023/04/21 01:33:38;;;;;;;7.60;4.12;;;;;;;13.16;47.32;99751.00;7709811;32;39913;-81
2023/04/21 01:37:55;;;;;;;11.55;4.37;;;;;;;13.22;47.09;99744.34;7711707;32;39017;-81
2023/04/21 01:42:12;;;;;;;7.47;3.83;;;;;;;13.11;47.10;99749.13;7711690;32;36820;-81
2023/04/21 01:46:28;;;;;;;8.50;4.03;;;;;;;13.08;47.34;99738.75;7697226;32;40179;-81
2023/04/21 01:50:45;;;;;;;8.75;3.75;;;;;;;13.02;47.42;99739.09;7710686;32;39946;-80
2023/04/21 01:55:01;;;;;;;8.93;4.25;;;;;;;12.76;47.82;99744.78;7710716;32;37662;-81
2023/04/21 01:59:17;;;;;;;11.88;4.12;;;;;;;12.49;48.43;99753.53;7696948;32;37150;-81
2023/04/21 02:03:34;;;;;;;11.02;4.60;;;;;;;12.56;48.99;99748.53;7710561;32;39717;-81
2023/04/21 02:07:51;;;;;;;11.93;4.57;;;;;;;12.29;49.93;99747.09;7711208;32;39680;-81
2023/04/21 02:12:07;;;;;;;11.75;4.75;;;;;;;12.26;49.79;99755.84;7710409;32;38591;-81
2023/04/21 02:16:26;;;;;;;6.55;3.80;;;;;;;12.21;50.01;99762.19;7710948;32;37078;-81
2023/04/21 02:20:43;;;;;;;11.73;4.80;;;;;;;12.11;50.48;99754.03;7710388;32;39364;-81
2023/04/21 02:24:59;;;;;;;10.60;4.57;;;;;;;12.09;50.48;99761.72;7710140;32;39645;-82
2023/04/21 02:29:15;;;;;;;8.82;4.05;;;;;;;12.30;50.25;99748.72;7709957;32;37685;-80
2023/04/21 02:33:32;;;;;;;12.18;4.87;;;;;;;12.16;50.52;99751.28;7709919;32;37016;-81
2023/04/21 02:37:48;;;;;;;11.40;4.07;;;;;;;12.19;50.45;99758.09;7709717;32;39400;-81
2023/04/21 02:42:05;;;;;;;10.15;4.57;;;;;;;11.84;51.47;99760.72;7718356;32;39909;-81
2023/04/21 02:46:21;;;;;;;12.63;4.60;;;;;;;11.74;51.98;99765.41;7739696;32;37504;-81
2023/04/21 02:50:38;;;;;;;10.07;4.32;;;;;;;11.73;52.47;99764.59;7739698;32;36972;-81
2023/04/21 02:54:55;;;;;;;10.63;4.68;;;;;;;11.77;51.89;99770.31;7739759;32;40057;-80
2023/04/21 02:59:15;;;;;;;8.50;4.40;;;;;;;11.73;52.07;99774.69;7725835;32;39600;-81
2023/04/21 03:03:32;;;;;;;8.85;4.53;;;;;;;11.75;52.04;99773.31;7739704;32;38473;-80
2023/04/21 03:07:48;;;;;;;13.68;4.87;;;;;;;11.60;52.90;99782.38;7720495;32;37802;-80
2023/04/21 03:12:04;;;;;;;9.65;4.90;;;;;;;11.68;52.83;99782.94;7712772;32;39431;-82
2023/04/21 03:16:21;;;;;;;8.60;4.85;;;;;;;11.52;52.88;99774.78;7698926;32;39906;-81
2023/04/21 03:20:38;;;;;;;11.73;4.93;;;;;;;11.46;53.00;99778.63;7721713;32;38044;-81
2023/04/21 03:24:54;;;;;;;8.70;4.07;;;;;;;11.45;52.75;99783.28;7725606;32;37755;-80
2023/04/21 03:29:10;;;;;;;10.55;4.05;;;;;;;11.43;52.68;99782.75;7739369;32;39306;-80
2023/04/21 03:33:26;;;;;;;9.30;4.37;;;;;;;11.36;52.70;99793.09;7739224;32;40012;-80
2023/04/21 03:37:43;;;;;;;10.50;4.70;;;;;;;11.39;52.76;99783.56;7738834;32;37945;-81
2023/04/21 03:42:00;;;;;;;10.40;4.22;;;;;;;11.55;52.31;99787.87;7739105;32;36935;-81
2023/04/21 03:46:20;;;;;;;7.53;4.37;;;;;;;11.23;53.09;99783.59;7739150;32;39323;-80
2023/04/21 03:50:37;;;;;;;9.63;4.70;;;;;;;11.40;52.75;99788.75;7725000;32;39957;-80
2023/04/21 03:54:54;;;;;;;14.48;4.87;;;;;;;11.20;53.26;99794.25;7724590;32;37915;-80
2023/04/21 03:59:10;;;;;;;11.98;4.50;;;;;;;11.25;53.17;99797.78;7738921;32;37333;-81
2023/04/21 04:03:26;;;;;;;15.57;4.93;;;;;;;11.25;53.16;99800.50;7731628;32;39452;-80
2023/04/21 04:07:44;;;;;;;8.88;4.30;;;;;;;11.30;53.12;99798.84;7698278;32;39692;-81
2023/04/21 04:12:02;;;;;;;11.23;4.80;;;;;;;11.28;53.34;99808.16;7711994;32;38542;-81
2023/04/21 04:16:18;;;;;;;11.93;5.85;;;;;;;11.37;53.27;99804.88;7712010;32;36905;-81
2023/04/21 04:20:35;;;;;;;12.77;6.10;;;;;;;11.08;54.58;99808.19;7711987;32;39354;-81
2023/04/21 04:24:52;;;;;;;14.23;5.50;;;;;;;11.10;55.34;99803.25;7698045;32;40666;-81
2023/04/21 04:29:09;;;;;;;11.73;7.30;;;;;;;11.41;55.03;99805.94;7698098;32;37852;-81
2023/04/21 04:33:26;;;;;;;14.50;8.10;;;;;;;11.37;55.72;99802.13;7697972;32;36863;-80
2023/04/21 04:37:42;;;;;;;14.63;5.40;;;;;;;11.41;55.95;99811.37;7698077;32;40205;-81
2023/04/21 04:42:00;;;;;;;10.65;5.57;;;;;;;11.33;55.63;99804.59;7711999;32;40858;-80
2023/04/21 04:46:19;;;;;;;15.43;8.45;;;;;;;11.32;56.41;99810.34;7697813;32;36919;-80
2023/04/21 04:50:35;;;;;;;19.75;9.73;;;;;;;11.58;55.84;99800.97;7711398;32;37249;-81
2023/04/21 04:54:52;;;;;;;16.40;7.97;;;;;;;11.90;54.83;99807.97;7712286;32;39388;-80
2023/04/21 04:59:08;;;;;;;19.67;8.13;;;;;;;11.48;55.94;99811.91;7711506;32;39958;-81
2023/04/21 05:03:24;;;;;;;12.23;6.57;;;;;;;11.75;53.90;99811.56;7711386;32;38666;-81
2023/04/21 05:07:41;;;;;;;14.52;5.53;;;;;;;11.72;54.62;99811.31;7697643;32;37874;-81
2023/04/21 05:11:57;;;;;;;11.68;6.47;;;;;;;11.84;54.38;99809.87;7711499;32;40451;-81
2023/04/21 05:16:13;;;;;;;19.10;7.95;;;;;;;12.14;52.67;99802.69;7711248;32;39569;-81
2023/04/21 05:20:29;;;;;;;19.48;9.10;;;;;;;12.40;49.96;99805.25;7714890;32;38758;-82
2023/04/21 05:24:46;;;;;;;16.17;6.70;;;;;;;12.40;50.30;99808.81;7713941;32;37059;-81
2023/04/21 05:29:02;;;;;;;14.00;5.18;;;;;;;12.68;49.46;99806.41;7711276;32;39388;-81
2023/04/21 05:33:18;;;;;;;10.27;5.10;;;;;;;12.82;48.83;99805.78;7711169;32;39975;-81
2023/04/21 05:37:35;;;;;;;9.85;4.18;;;;;;;12.80;47.77;99802.47;7711177;32;37986;-81
2023/04/21 05:41:51;;;;;;;12.68;4.70;;;;;;;13.03;47.06;99800.94;7713619;32;37677;-82
2023/04/21 05:46:10;;;;;;;12.35;3.72;;;;;;;13.37;46.42;99798.16;7736245;32;39124;-82
2023/04/21 05:50:32;;;;;;;10.95;4.30;;;;;;;13.50;45.20;99794.75;7737367;32;40802;-81
2023/04/21 05:54:49;;;;;;;11.43;4.35;;;;;;;13.55;45.01;99790.28;7737324;32;38096;-85
2023/04/21 05:59:05;;;;;;;7.15;3.70;;;;;;;13.82;45.16;99790.50;7723861;32;37665;-66
2023/04/21 06:03:22;;;;;;;15.52;3.92;;;;;;;14.09;51.23;99792.63;7737521;32;40033;-84
2023/04/21 06:07:38;;;;;;;12.13;3.72;;;;;;;14.52;46.84;99786.25;7728115;32;39950;-84
2023/04/21 06:11:56;;;;;;;10.15;4.87;;;;;;;14.68;44.48;99786.84;7711818;32;38666;-84
2023/04/21 06:16:12;;;;;;;8.50;3.80;;;;;;;14.58;42.96;99785.06;7737146;32;37419;-83
2023/04/21 06:20:29;;;;;;;17.48;4.25;;;;;;;14.46;42.31;99790.19;7726993;32;40060;-83
2023/04/21 06:24:45;;;;;;;26.42;8.60;;;;;;;14.57;42.36;99786.19;7726794;32;40594;-80
2023/04/21 06:29:01;;;;;;;16.00;8.43;;;;;;;15.10;40.56;99773.25;7736429;32;37974;-78
2023/04/21 06:33:18;;;;;;;9.32;5.57;;;;;;;15.19;38.04;99764.00;7709942;32;37098;-78
2023/04/21 06:37:34;;;;;;;12.82;7.85;;;;;;;15.85;37.44;99768.50;7711126;32;39336;-78
2023/04/21 06:41:50;;;;;;;11.15;5.10;;;;;;;16.05;35.37;99773.56;7709620;32;40008;-78
2023/04/21 06:46:07;;;;;;;16.77;5.90;;;;;;;15.96;35.85;99770.72;7709730;32;37873;-78
2023/04/21 06:50:23;;;;;;;9.30;3.58;;;;;;;16.28;36.25;99774.44;7709092;32;37742;-78
2023/04/21 06:54:40;;;;;;;8.00;3.75;;;;;;;16.64;34.69;99770.84;7712422;32;40164;-79
2023/04/21 06:58:56;;;;;;;16.62;3.30;;;;;;;16.80;35.29;99763.00;7736279;32;40699;-79
2023/04/21 07:03:12;;;;;;;9.00;4.03;;;;;;;16.92;33.79;99765.22;7736000;32;38740;-80
2023/04/21 07:07:29;;;;;;;10.32;3.45;;;;;;;16.83;34.26;99762.38;7713975;32;36730;-80
2023/04/21 07:11:45;;;;;;;9.60;3.67;;;;;;;17.27;34.02;99763.44;7715860;32;39399;-80
2023/04/21 07:16:02;;;;;;;12.00;3.50;;;;;;;17.71;33.30;99763.59;7734752;32;40765;-79
2023/04/21 07:20:18;;;;;;;8.20;3.05;;;;;;;17.61;33.09;99766.66;7734020;32;37866;-80
2023/04/21 07:24:36;;;;;;;6.25;3.60;;;;;;;17.81;33.51;99762.47;7735281;32;37102;-80
2023/04/21 07:28:54;;;;;;;10.68;4.07;;;;;;;18.12;31.35;99758.84;7721068;32;39330;-79
2023/04/21 07:33:10;;;;;;;14.45;3.70;;;;;;;17.92;33.59;99761.09;7734337;32;39968;-80
2023/04/21 07:37:26;;;;;;;15.48;3.87;;;;;;;18.29;31.92;99753.31;7738211;32;37951;-80
2023/04/21 07:41:43;;;;;;;10.20;3.75;;;;;;;18.34;31.70;99764.22;7739180;32;37189;-80
2023/04/21 07:46:00;;;;;;;12.95;4.18;;;;;;;18.18;31.40;99752.84;7732955;32;39039;-81
2023/04/21 07:50:18;;;;;;;11.43;3.92;;;;;;;18.32;30.95;99754.66;7736060;32;40223;-81
2023/04/21 07:54:34;;;;;;;11.07;3.70;;;;;;;17.79;31.60;99756.47;7728932;32;38640;-82
2023/04/21 07:58:50;;;;;;;11.10;4.03;;;;;;;18.61;32.16;99761.44;7738011;32;37857;-82
2023/04/21 08:03:07;;;;;;;9.25;3.90;;;;;;;19.10;30.12;99756.50;7738961;32;40033;-81
2023/04/21 08:07:23;;;;;;;9.88;3.87;;;;;;;18.94;32.03;99761.75;7737926;32;39800;-81
2023/04/21 08:11:40;;;;;;;14.35;3.95;;;;;;;19.37;31.35;99762.72;7738295;32;38680;-81
2023/04/21 08:15:56;;;;;;;12.45;4.68;;;;;;;19.34;29.29;99753.16;7733358;32;37071;-81
2023/04/21 08:20:13;;;;;;;12.88;3.85;;;;;;;19.84;30.31;99757.97;7738087;32;40096;-82
2023/04/21 08:24:29;;;;;;;9.73;4.15;;;;;;;19.66;29.54;99750.88;7738697;32;39826;-81
2023/04/21 08:28:48;;;;;;;10.60;4.00;;;;;;;19.83;29.58;99755.53;7734933;32;37865;-81
2023/04/21 08:33:06;;;;;;;11.95;4.15;;;;;;;20.03;28.63;99751.19;7710980;32;36080;-81
2023/04/21 08:37:23;;;;;;;6.30;3.50;;;;;;;20.04;28.62;99753.62;7719220;32;39073;-81
2023/04/21 08:41:40;;;;;;;10.80;4.15;;;;;;;20.34;28.76;99748.00;7710604;32;40589;-81
2023/04/21 08:45:58;;;;;;;5.22;3.50;;;;;;;20.12;28.43;99751.94;7697891;32;37938;-81
2023/04/21 08:50:15;;;;;;;10.25;3.53;;;;;;;20.45;27.31;99748.41;7697358;32;37280;-80
2023/04/21 08:54:32;;;;;;;10.85;3.87;;;;;;;20.77;28.15;99748.81;7711694;32;38263;-81
2023/04/21 08:58:49;;;;;;;7.85;4.05;;;;;;;20.43;26.95;99753.47;7697193;32;40739;-80
2023/04/21 09:03:07;;;;;;;9.27;3.75;;;;;;;20.36;27.98;99751.25;7711513;32;37749;-81
2023/04/21 09:07:38;;;;;;;11.23;4.30;;;;;;;20.40;27.46;99745.84;7710799;32;37031;-79
2023/04/21 09:11:58;;;;;;;7.37;3.58;;;;;;;20.75;27.34;99728.94;7710396;32;39368;-79
2023/04/21 09:16:17;;;;;;;8.18;4.00;;;;;;;20.37;28.27;99738.22;7721064;32;40647;-80
2023/04/21 09:20:33;;;;;;;9.77;3.92;;;;;;;20.86;27.67;99727.34;7738148;32;38025;-81
2023/04/21 09:24:56;;;;;;;9.05;4.32;;;;;;;20.58;26.59;99719.63;7738033;32;37185;-79
2023/04/21 09:29:12;;;;;;;7.53;4.00;;;;;;;20.61;28.32;99724.47;7705597;32;40039;-81
2023/04/21 09:33:31;;;;;;;17.77;4.32;;;;;;;20.98;27.85;99718.25;7711112;32;41112;-80
2023/04/21 09:38:11;;;;;;;10.32;4.18;;;;;;;21.29;26.27;99719.69;7711063;32;37802;-80
2023/04/21 09:42:32;;;;;;;12.57;4.25;;;;;;;21.12;24.85;99709.63;7711112;32;38014;-80
2023/04/21 09:47:01;;;;;;;7.82;3.87;;;;;;;21.15;25.76;99706.97;7698147;32;39381;-80
2023/04/21 09:51:18;;;;;;;11.18;3.85;;;;;;;21.45;26.36;99701.19;7710452;32;40684;-80
2023/04/21 09:55:37;;;;;;;10.50;3.83;;;;;;;21.44;25.06;99691.25;7710411;32;37195;-79
2023/04/21 10:00:09;;;;;;;11.05;4.55;;;;;;;20.98;24.72;99688.56;7710900;32;37899;-81
2023/04/21 10:04:27;;;;;;;11.00;4.13;;;;;;;20.57;25.72;99689.50;7719915;32;39482;-80
2023/04/21 10:08:45;;;;;;;11.50;3.95;;;;;;;20.45;26.87;99699.41;7737254;32;38985;-72
2023/04/21 10:13:02;;;;;;;9.60;3.90;;;;;;;21.24;27.49;99684.66;7713580;32;38138;-80
2023/04/21 10:17:21;;;;;;;6.87;3.85;;;;;;;22.27;26.77;99674.34;7704785;32;37022;-79
2023/04/21 10:21:37;;;;;;;15.07;4.37;;;;;;;22.31;23.64;99681.63;7737227;32;39400;-81
2023/04/21 10:26:00;;;;;;;12.37;4.07;;;;;;;22.15;23.93;99677.16;7724353;32;39979;-81
2023/04/21 10:30:27;;;;;;;9.43;3.60;;;;;;;22.35;24.95;99681.72;7728676;32;37974;-81
2023/04/21 10:34:44;;;;;;;9.68;3.95;;;;;;;22.36;26.97;99672.25;7710132;32;37878;-81
2023/04/21 10:39:04;;;;;;;7.82;3.47;;;;;;;22.16;24.91;99670.44;7728639;32;39394;-82
2023/04/21 10:43:44;;;;;;;7.68;3.87;;;;;;;22.08;24.06;99667.47;7723333;32;39928;-81
2023/04/21 10:48:12;;;;;;;;;;;;;;;21.72;23.32;99663.63;7725075;32;38010;-81
2023/04/21 10:52:34;;;;;;;7.37;4.00;;;;;;;21.58;24.29;99665.97;7709560;32;36813;-81
2023/04/21 10:56:55;;;;;;;10.50;3.70;;;;;;;21.49;24.32;99655.00;7716088;32;39288;-81
2023/04/21 11:01:11;;;;;;;14.55;4.35;;;;;;;21.36;24.70;99659.72;7709323;32;39661;-81
2023/04/21 11:05:40;;;;;;;7.68;3.70;;;;;;;21.13;25.62;99659.38;7711554;32;37958;-81
2023/04/21 11:10:05;;;;;;;9.25;4.05;;;;;;;21.64;25.06;99661.00;7712817;32;37875;-81
2023/04/21 11:14:21;;;;;;;9.65;4.37;;;;;;;22.02;25.35;99645.84;7712646;32;40088;-81
2023/04/21 11:18:42;;;;;;;11.00;4.22;;;;;;;22.51;22.10;99634.56;7712220;32;39833;-82
2023/04/21 11:22:58;;;;;;;13.40;4.03;;;;;;;22.90;24.73;99639.53;7699375;32;38785;-80
2023/04/21 11:27:15;;;;;;;11.25;4.03;;;;;;;22.93;22.36;99638.81;7712774;32;37220;-81
2023/04/21 11:31:31;;;;;;;8.35;3.80;;;;;;;23.00;25.27;99638.97;7712618;32;39559;-79
2023/04/21 11:35:50;;;;;;;12.88;3.87;;;;;;;22.86;24.49;99640.22;7712458;32;39759;-81
2023/04/21 11:40:07;;;;;;;8.23;3.80;;;;;;;22.52;25.30;99640.91;7712436;32;38795;-82
2023/04/21 11:44:56;;;;;;;8.43;3.97;;;;;;;22.26;25.65;99644.94;7712530;32;37179;-81
2023/04/21 11:49:16;;;;;;;7.43;3.70;;;;;;;22.09;27.58;99646.06;7671277;32;40312;-80
2023/04/21 11:53:32;;;;;;;7.72;4.05;;;;;;;22.13;25.38;99639.47;7711266;32;39891;-81
2023/04/21 11:57:50;;;;;;;10.55;4.03;;;;;;;22.27;25.05;99636.31;7711815;32;38748;-81
2023/04/21 12:02:12;;;;;;;8.23;3.70;;;;;;;22.02;24.69;99635.56;7698149;32;37881;-81
2023/04/21 12:06:28;;;;;;;8.80;3.87;;;;;;;22.31;24.80;99634.41;7699397;32;39580;-81
2023/04/21 12:10:45;;;;;;;18.83;8.23;;;;;;;21.98;24.59;99631.88;7712157;32;40853;-81
2023/04/21 12:15:03;;;;;;;18.17;8.40;;;;;;;22.34;25.50;99624.59;7711360;32;38036;-81
2023/04/21 12:19:24;;;;;;;14.20;7.18;;;;;;;22.28;25.29;99621.28;7711929;32;36878;-81
2023/04/21 12:23:40;;;;;;;6.95;3.53;;;;;;;22.54;25.79;99616.38;7712014;32;39456;-81
2023/04/21 12:27:59;;;;;;;10.35;4.80;;;;;;;22.52;22.92;99605.59;7711905;32;40130;-81
2023/04/21 12:32:16;;;;;;;10.52;3.72;;;;;;;22.56;24.72;99608.47;7711775;32;38006;-81
2023/04/21 12:36:35;;;;;;;13.65;4.30;;;;;;;22.47;22.94;99601.16;7711933;32;37879;-81
2023/04/21 12:40:51;;;;;;;7.07;3.85;;;;;;;22.07;24.13;99609.53;7711721;32;40056;-82
2023/04/21 12:45:08;;;;;;;8.55;4.00;;;;;;;21.60;24.56;99607.38;7711745;32;40024;-81
2023/04/21 12:49:25;;;;;;;9.50;4.25;;;;;;;21.00;24.46;99602.34;7711905;32;38033;-82
2023/04/21 12:53:41;;;;;;;15.75;4.20;;;;;;;21.29;25.60;99603.25;7711797;32;37253;-81
2023/04/21 12:57:58;;;;;;;9.57;4.20;;;;;;;21.12;26.60;99588.47;7711731;32;39468;-81
2023/04/21 13:02:14;;;;;;;8.15;3.87;;;;;;;20.01;26.83;99585.50;7697919;32;39966;-81
2023/04/21 13:06:31;;;;;;;9.05;5.50;;;;;;;19.96;27.55;99587.69;7712328;32;38819;-81
2023/04/21 13:10:48;;;;;;;24.10;10.40;;;;;;;20.46;26.81;99589.44;7729230;32;37022;-81
2023/04/21 13:15:04;;;;;;;20.45;9.30;;;;;;;20.51;26.40;99592.00;7717666;32;39293;-81
2023/04/21 13:19:21;;;;;;;11.18;4.03;;;;;;;20.77;26.35;99588.13;7728313;32;40145;-81
2023/04/21 13:23:37;;;;;;;9.00;3.78;;;;;;;20.70;25.90;99585.12;7731040;32;37957;-82
2023/04/21 13:27:53;;;;;;;9.10;4.60;;;;;;;20.62;25.67;99576.56;7736656;32;36738;-81
2023/04/21 13:32:09;;;;;;;12.88;4.05;;;;;;;;;;7724314;32;40098;-81
2023/04/21 13:36:25;;;;;;;8.73;4.35;;;;;;;20.34;26.33;99573.63;7724321;32;40302;-81
2023/04/21 13:40:42;;;;;;;8.68;4.57;;;;;;;20.59;26.60;99566.16;7724033;32;38670;-81
2023/04/21 13:44:59;;;;;;;7.62;3.60;;;;;;;20.40;27.74;99563.12;7737709;32;37173;-80
2023/04/21 13:49:15;;;;;;;7.50;3.97;;;;;;;20.10;26.33;99566.06;7737682;32;40092;-81
2023/04/21 13:53:31;;;;;;;8.20;3.70;;;;;;;20.76;26.27;99564.34;7737442;32;39734;-81
2023/04/21 13:57:48;;;;;;;11.35;3.90;;;;;;;20.92;25.79;99559.75;7737581;32;38984;-81
2023/04/21 14:02:04;;;;;;;8.20;3.72;;;;;;;21.09;27.22;99560.63;7737558;32;37181;-81
2023/04/21 14:06:20;;;;;;;13.15;4.28;;;;;;;21.22;27.55;99556.69;7733718;32;39429;-80
2023/04/21 14:10:37;;;;;;;9.43;4.18;;;;;;;21.15;28.18;99556.50;7717911;32;40948;-81
2023/04/21 14:14:53;;;;;;;10.10;3.87;;;;;;;21.19;26.10;99555.41;7718191;32;36924;-81
2023/04/21 14:19:10;;;;;;;6.87;3.85;;;;;;;21.34;27.00;99555.88;7725088;32;37129;-81
2023/04/21 14:23:26;;;;;;;10.45;3.92;;;;;;;21.46;26.85;99553.09;7737100;32;40169;-80
2023/04/21 14:27:43;;;;;;;11.15;4.28;;;;;;;21.39;27.91;99548.12;7721475;32;40048;-80
2023/04/21 14:31:59;;;;;;;11.27;4.18;;;;;;;21.81;28.25;99546.97;7710092;32;37588;-79
2023/04/21 14:36:16;;;;;;;6.47;3.50;;;;;;;22.00;25.94;99532.41;7710049;32;37092;-81
2023/04/21 14:40:32;;;;;;;8.65;3.42;;;;;;;22.74;26.58;99531.94;7720106;32;39446;-81
2023/04/21 14:44:48;;;;;;;8.48;4.00;;;;;;;22.69;24.48;99532.22;7724242;32;40746;-80
2023/04/21 14:49:05;;;;;;;10.32;3.50;;;;;;;22.31;23.79;99519.78;7720560;32;38085;-80
2023/04/21 14:53:21;;;;;;;8.60;3.60;;;;;;;21.96;23.91;99525.19;7708118;32;37093;-80
2023/04/21 14:57:37;;;;;;;23.75;7.80;;;;;;;21.41;24.34;99522.00;7715525;32;39069;-80
2023/04/21 15:01:54;;;;;;;12.27;4.43;;;;;;;21.68;24.97;99521.25;7711413;32;40831;-81
2023/04/21 15:06:11;;;;;;;11.52;6.62;;;;;;;22.08;25.70;99523.13;7715331;32;39067;-82
2023/04/21 15:10:29;;;;;;;8.85;3.62;;;;;;;22.07;24.86;99515.94;7725002;32;36922;-81
2023/04/21 15:14:45;;;;;;;11.55;3.83;;;;;;;22.91;24.07;99508.53;7724565;32;38429;-81
2023/04/21 15:19:02;;;;;;;12.40;3.83;;;;;;;22.86;22.65;99506.81;7720194;32;40773;-82
2023/04/21 15:23:18;;;;;;;8.88;3.90;;;;;;;22.47;23.92;99512.25;7737955;32;38769;-81
2023/04/21 15:27:35;;;;;;;10.43;3.78;;;;;;;22.00;24.43;99513.00;7720259;32;37211;-81
2023/04/21 15:31:52;;;;;;;10.60;4.07;;;;;;;21.92;25.39;99508.41;7722649;32;40154;-80
2023/04/21 15:36:08;;;;;;;9.70;3.62;;;;;;;21.00;26.13;99503.38;7725325;32;40843;-80
2023/04/21 15:40:25;;;;;;;14.63;3.95;;;;;;;21.21;25.46;99507.94;7724326;32;37910;-80
2023/04/21 15:44:42;;;;;;;9.68;3.70;;;;;;;21.03;25.85;99506.63;7711764;32;37884;-79
2023/04/21 15:48:58;;;;;;;6.65;3.72;;;;;;;21.14;26.12;99508.53;7711788;32;39411;-80
2023/04/21 15:53:14;;;;;;;9.05;3.42;;;;;;;21.45;26.08;99503.50;7714931;32;40011;-83
2023/04/21 15:57:35;;;;;;;19.23;4.70;;;;;;;21.38;26.47;99501.31;7732748;32;37929;-85
2023/04/21 16:01:52;;;;;;;17.08;4.75;;;;;;;21.54;27.54;99498.63;7727932;32;37241;-87
2023/04/21 16:06:09;;;;;;;9.20;3.78;;;;;;;21.42;26.76;99487.56;7731109;32;40120;-67
2023/04/21 16:10:26;;;;;;;13.70;4.82;;;;;;;21.92;29.75;99486.19;7724787;32;40033;-68
2023/04/21 16:14:42;;;;;;;24.40;11.10;;;;;;;22.04;26.36;99486.16;7738309;32;38775;-88
2023/04/21 16:19:14;;;;;;;21.12;6.93;;;;;;;21.36;26.29;99482.25;7730521;32;37934;-87
2023/04/21 16:23:31;;;;;;;17.80;7.47;;;;;;;21.03;27.12;99484.47;7716729;32;39040;-86
2023/04/21 16:27:47;;;;;;;14.38;6.00;;;;;;;21.17;26.76;99482.91;7710249;32;40067;-86
2023/04/21 16:32:04;;;;;;;9.85;5.20;;;;;;;20.63;27.49;99478.50;7711166;32;38642;-86
2023/04/21 16:36:21;;;;;;;14.57;5.85;;;;;;;20.97;27.60;99475.56;7710613;32;37106;-86
2023/04/21 16:40:37;;;;;;;9.55;4.60;;;;;;;21.00;29.34;99475.66;7696414;32;39222;-85
2023/04/21 16:44:57;;;;;;;10.07;4.45;;;;;;;21.27;28.49;99473.28;7713862;32;39860;-86
2023/04/21 16:49:14;;;;;;;10.30;4.57;;;;;;;21.29;27.49;99473.75;7720920;32;38883;-86
2023/04/21 16:53:30;;;;;;;8.73;4.20;;;;;;;21.22;28.20;99475.50;7736599;32;37384;-86
2023/04/21 16:57:47;;;;;;;14.38;4.90;;;;;;;21.39;28.46;99476.03;7737884;32;39273;-86
2023/04/21 17:02:03;;;;;;;8.07;4.32;;;;;;;21.33;28.31;99482.97;7732455;32;39566;-86
2023/04/21 17:06:20;;;;;;;29.40;13.25;;;;;;;21.32;28.47;99486.91;7738185;32;38050;-86
2023/04/21 17:10:36;;;;;;;38.05;17.40;;;;;;;21.52;26.63;99473.22;7736298;32;37134;-90
2023/04/21 17:14:52;;;;;;;16.12;6.72;;;;;;;21.52;27.04;99476.00;7736784;32;39463;-84
2023/04/21 17:19:09;;;;;;;10.25;4.80;;;;;;;21.60;26.84;99480.59;7737204;32;40617;-86
2023/04/21 17:23:25;;;;;;;9.20;4.35;;;;;;;21.50;27.06;99481.09;7737895;32;39257;-87
2023/04/21 17:27:42;;;;;;;16.45;4.95;;;;;;;21.19;27.49;99482.56;7709221;32;36828;-85
2023/04/21 17:31:58;;;;;;;12.63;4.60;;;;;;;20.80;28.96;99469.13;7710769;32;39363;-87
2023/04/21 17:36:15;;;;;;;9.27;4.68;;;;;;;20.44;29.32;99481.81;7733916;32;40124;-87
2023/04/21 17:40:32;;;;;;;10.70;4.40;;;;;;;20.21;29.03;99478.69;7734973;32;37968;-88
2023/04/21 17:44:48;;;;;;;9.38;4.57;;;;;;;19.86;30.03;99484.59;7697012;32;37195;-87
2023/04/21 17:49:05;;;;;;;33.13;5.40;;;;;;;19.67;31.05;99487.03;7712895;32;40314;-86
2023/04/21 17:53:21;;;;;;;18.92;5.00;;;;;;;19.45;31.13;99485.44;7735209;32;40501;-88
2023/04/21 17:57:37;;;;;;;11.15;5.22;;;;;;;19.27;31.42;99482.03;7722084;32;38266;-88
2023/04/21 18:01:56;;;;;;;11.02;6.37;;;;;;;18.98;31.06;99492.00;7735668;32;37829;-86
2023/04/21 18:06:14;;;;;;;18.95;7.35;;;;;;;18.90;30.10;99498.37;7710139;32;39582;-87
2023/04/21 18:10:31;;;;;;;15.18;7.05;;;;;;;18.71;31.38;99509.81;7710904;32;39621;-86
2023/04/21 18:14:47;;;;;;;23.80;6.82;;;;;;;18.56;32.13;99505.69;7731100;32;38566;-87
2023/04/21 18:19:04;;;;;;;13.73;6.37;;;;;;;18.28;33.48;99511.66;7737464;32;37290;-87
2023/04/21 18:23:20;;;;;;;12.95;6.55;;;;;;;18.21;34.15;99514.09;7731439;32;39418;-87
2023/04/21 18:27:40;;;;;;;12.40;6.25;;;;;;;17.81;34.71;99519.84;7722762;32;40739;-86
2023/04/21 18:31:56;;;;;;;11.25;6.12;;;;;;;17.56;35.05;99524.25;7720566;32;37844;-86
2023/04/21 18:36:12;;;;;;;12.13;5.65;;;;;;;17.70;35.35;99524.09;7718498;32;37149;-87
2023/04/21 18:40:29;;;;;;;16.08;6.82;;;;;;;17.73;35.50;99526.19;7709901;32;40417;-85
2023/04/21 18:44:45;;;;;;;15.88;7.87;;;;;;;17.34;36.60;99528.00;7714898;32;39928;-65
2023/04/21 18:49:02;;;;;;;11.45;6.93;;;;;;;17.36;37.92;99534.78;7707818;32;37800;-82
2023/04/21 18:53:18;;;;;;;13.57;6.18;;;;;;;17.29;37.18;99530.91;7721924;32;37696;-82
2023/04/21 18:57:34;;;;;;;12.55;5.90;;;;;;;17.13;37.21;99539.62;7729607;32;39458;-83
2023/04/21 19:01:54;;;;;;;18.40;6.45;;;;;;;16.92;36.59;99535.84;7734875;32;39934;-83
2023/04/21 19:06:10;;;;;;;12.57;6.45;;;;;;;16.70;36.92;99535.59;7716551;32;37893;-85
2023/04/21 19:10:27;;;;;;;18.08;6.60;;;;;;;16.51;37.22;99541.38;7709681;32;37986;-86
2023/04/21 19:14:44;;;;;;;10.52;5.68;;;;;;;16.56;36.65;99536.84;7705648;32;39505;-85
2023/04/21 19:19:03;;;;;;;22.05;13.02;;;;;;;16.51;36.34;99546.06;7725293;32;40903;-85
2023/04/21 19:23:20;;;;;;;31.58;20.45;;;;;;;16.24;37.22;99538.81;7720363;32;38837;-84
2023/04/21 19:27:36;;;;;;;17.17;10.60;;;;;;;16.32;37.54;99536.09;7723319;32;37256;-84
2023/04/21 19:31:53;;;;;;;13.25;7.10;;;;;;;16.26;37.88;99539.31;7723057;32;40019;-85
2023/04/21 19:36:09;;;;;;;13.38;6.80;;;;;;;16.04;38.27;99538.22;7722419;32;39997;-83
2023/04/21 19:40:26;;;;;;;10.57;5.53;;;;;;;16.00;38.61;99542.72;7707189;32;37839;-84
2023/04/21 19:44:42;;;;;;;18.33;7.45;;;;;;;16.03;38.87;99542.09;7710960;32;37105;-85
2023/04/21 19:48:58;;;;;;;12.07;6.00;;;;;;;15.67;39.51;99550.38;7711563;32;40154;-84
2023/04/21 19:53:15;;;;;;;12.65;6.07;;;;;;;15.59;40.10;99543.69;7710998;32;40946;-86
2023/04/21 19:57:31;;;;;;;14.70;6.75;;;;;;;15.63;40.43;99549.41;7716296;32;38651;-85
2023/04/21 20:01:48;;;;;;;15.27;6.70;;;;;;;15.38;41.01;99559.84;7704178;32;37949;-83
2023/04/21 20:06:04;;;;;;;14.15;6.93;;;;;;;15.36;41.17;99556.59;7721784;32;39319;-85